Latest Coastal Weather Observations for Gannett Cay

IDQ60701

Issued at 12:22 pm EST Tuesday 26 May 2020 (issued every 10 minutes, with the page automatically refreshed every 10 minutes)

About coastal observations | Map of coastal stations | Coastal observations for QLD | Marine services | Other Formats
Station Details ID: 200831 Name: GANNET CAY Lat: -21.98 Lon: 152.47 Height: 2.3 m
Data from the previous 72 hours. | See also: Recent months for locations in Queensland
Date/Time
EST
Wind Sea
Height
m
Swell Vis
km
Cloud Weather Temp
°C
Press
hPa
Rain since
9am
mm
Dir  Spd
kts
Gust
kts
Height
m
Period
s
Dir
26/12:00pm CALM 0 0 - - - - - - - 22.5 1018.5 -
26/11:30am E 3 5 - - - - - - - 22.2 1018.4 -
26/11:00am SSE 2 5 - - - - - - - 23.2 1019.0 -
26/10:30am S 3 5 - - - - - - - 22.5 1019.0 -
26/10:00am S 3 7 - - - - - - - 22.1 1019.4 -
26/09:30am S 5 6 - - - - - - - 22.0 1019.2 -
26/09:00am SW 7 9 - - - - - - - 21.8 1019.3 -
26/08:30am SW 5 7 - - - - - - - 21.6 1019.1 -
26/08:00am SW 5 8 - - - - - - - 21.6 1019.0 -
26/07:30am SW 8 9 - - - - - - - 21.4 1018.4 -
26/07:00am SW 6 8 - - - - - - - 21.4 1018.3 -
26/06:30am SSW 7 9 - - - - - - - 21.3 1018.0 -
26/06:00am SW 8 12 - - - - - - - 21.1 1017.5 -
26/05:30am SW 8 10 - - - - - - - 21.0 1017.0 -
26/05:00am SW 7 9 - - - - - - - 20.8 1017.0 -
26/04:30am SW 9 12 - - - - - - - 20.8 1016.7 -
26/04:00am SSW 10 13 - - - - - - - 20.6 1017.1 -
26/03:30am SW 11 15 - - - - - - - 20.7 1017.0 -
26/03:00am SW 12 16 - - - - - - - 20.6 1017.1 -
26/02:30am SW 12 15 - - - - - - - 20.7 1017.0 -
26/02:00am WSW 13 15 - - - - - - - 20.7 1017.4 -
26/01:30am WSW 12 15 - - - - - - - 20.8 1017.3 -
26/01:00am WSW 11 16 - - - - - - - 20.5 1017.5 -
26/12:30am WSW 11 14 - - - - - - - 20.4 1017.6 -
26/12:00am W 11 14 - - - - - - - 20.3 1018.0 -
 
Date/Time
EST
Wind Sea
Height
m
Swell Vis
km
Cloud Weather Temp
°C
Press
hPa
Rain since
9am
mm
Dir  Spd
kts
Gust
kts
Height
m
Period
s
Dir
25/11:30pm W 11 14 - - - - - - - 20.3 1018.2 -
25/11:00pm W 12 16 - - - - - - - 20.3 1018.3 -
25/10:30pm W 12 15 - - - - - - - 20.4 1018.0 -
25/10:00pm W 12 15 - - - - - - - 20.2 1018.3 -
25/09:30pm W 11 15 - - - - - - - 20.2 1018.0 -
25/09:00pm WNW 11 14 - - - - - - - 20.2 1018.2 -
25/08:30pm W 11 14 - - - - - - - 20.2 1018.0 -
25/08:00pm WNW 9 12 - - - - - - - 20.2 1017.8 -
25/07:30pm W 8 11 - - - - - - - 20.1 1017.5 -
25/07:00pm W 7 10 - - - - - - - 20.0 1017.3 -
25/06:30pm W 8 11 - - - - - - - 19.9 1016.7 -
25/06:00pm W 7 9 - - - - - - - 19.8 1016.5 -
25/05:30pm W 6 8 - - - - - - - 19.8 1016.1 -
25/05:00pm W 7 10 - - - - - - - 19.9 1016.0 -
25/04:30pm WSW 7 9 - - - - - - - 19.9 1015.5 -
25/04:00pm W 8 11 - - - - - - - 20.0 1015.6 -
25/03:30pm WSW 7 9 - - - - - - - 20.1 1015.5 -
25/03:00pm W 6 9 - - - - - - - 20.1 1015.5 -
25/02:30pm W 5 8 - - - - - - - 19.9 1015.3 -
25/02:00pm W 7 9 - - - - - - - 20.0 1015.6 -
25/01:30pm W 6 9 - - - - - - - 19.9 1015.7 -
25/01:00pm WSW 7 9 - - - - - - - 20.0 1015.9 -
25/12:30pm WSW 6 8 - - - - - - - 20.0 1015.9 -
25/12:00pm WSW 5 7 - - - - - - - 19.9 1016.3 -
25/11:30am SW 5 9 - - - - - - - 20.0 1016.5 -
25/11:00am WSW 6 9 - - - - - - - 20.0 1017.0 -
25/10:30am SW 8 11 - - - - - - - 19.9 1017.3 -
25/10:00am SW 8 12 - - - - - - - 19.9 1017.4 -
25/09:30am SW 9 14 - - - - - - - 19.8 1017.3 -
25/09:00am SW 9 13 - - - - - - - 20.0 1017.3 -
25/08:30am SW 8 12 - - - - - - - 19.8 1016.8 -
25/08:00am SW 11 14 - - - - - - - 19.8 1016.6 -
25/07:30am SSW 9 13 - - - - - - - 20.0 1016.0 -
25/07:00am SSW 14 17 - - - - - - - 19.9 1016.0 -
25/06:30am WSW 10 13 - - - - - - - 19.8 1015.5 -
25/06:00am WSW 11 17 - - - - - - - 19.8 1015.5 -
25/05:30am SW 11 15 - - - - - - - 19.9 1015.1 -
25/05:00am WSW 12 15 - - - - - - - 19.8 1014.8 -
25/04:30am SW 12 16 - - - - - - - 19.7 1014.3 -
25/04:00am WSW 11 15 - - - - - - - 19.7 1014.4 -
25/03:30am WSW 11 14 - - - - - - - 19.6 1014.2 -
25/03:00am SW 10 14 - - - - - - - 19.7 1014.4 -
25/02:30am SW 12 17 - - - - - - - 19.6 1014.0 -
25/02:00am SW 10 16 - - - - - - - 19.8 1014.5 -
25/01:30am SW 13 16 - - - - - - - 19.6 1014.8 -
25/01:00am WSW 12 15 - - - - - - - 19.7 1015.2 -
25/12:30am SW 13 16 - - - - - - - 19.7 1015.2 -
25/12:00am WSW 15 19 - - - - - - - 19.9 1015.3 -
 
Date/Time
EST
Wind Sea
Height
m
Swell Vis
km
Cloud Weather Temp
°C
Press
hPa
Rain since
9am
mm
Dir  Spd
kts
Gust
kts
Height
m
Period
s
Dir
24/11:30pm SW 15 19 - - - - - - - 19.7 1015.1 -
24/11:00pm WSW 16 20 - - - - - - - 19.7 1015.4 -
24/10:30pm WSW 16 20 - - - - - - - 19.6 1015.6 -
24/10:00pm W 16 20 - - - - - - - 19.5 1016.1 -
24/09:30pm W 16 21 - - - - - - - 19.6 1015.8 -
24/09:00pm WSW 17 23 - - - - - - - 19.6 1015.5 -
24/08:30pm WSW 19 23 - - - - - - - 19.7 1015.0 -
24/08:00pm WSW 18 24 - - - - - - - 19.3 1015.1 -
24/07:30pm WSW 19 22 - - - - - - - 19.2 1014.7 -
24/07:00pm WSW 19 23 - - - - - - - 18.8 1014.0 -
24/06:30pm WSW 17 21 - - - - - - - 18.4 1013.8 -
24/06:00pm WSW 14 18 - - - - - - - 18.6 1013.5 -
24/05:30pm WSW 14 18 - - - - - - - 18.2 1013.2 -
24/05:00pm WSW 12 16 - - - - - - - 18.2 1012.9 -
24/04:30pm WSW 14 18 - - - - - - - 18.2 1012.6 -
24/04:00pm WSW 13 18 - - - - - - - 18.2 1012.7 -
24/03:30pm WSW 12 17 - - - - - - - 18.0 1012.7 -
24/03:00pm WSW 12 17 - - - - - - - 18.0 1012.6 -
24/02:30pm WSW 16 20 - - - - - - - 18.2 1011.7 -
24/02:00pm WSW 17 22 - - - - - - - 18.1 1012.3 -
24/01:30pm SW 16 19 - - - - - - - 18.3 1013.0 -
24/01:00pm WSW 17 21 - - - - - - - 18.0 1013.4 -
24/12:30pm SW 18 22 - - - - - - - 18.0 1013.3 -
24/12:00pm SW 18 23 - - - - - - - 18.0 1013.9 -
24/11:30am SW 18 21 - - - - - - - 18.0 1014.4 -
24/11:00am SW 18 24 - - - - - - - 18.0 1014.6 -
24/10:30am SW 19 23 - - - - - - - 18.2 1014.9 -
24/10:00am SSW 19 25 - - - - - - - 18.2 1014.6 -
24/09:30am SW 19 22 - - - - - - - 18.3 1015.2 -
24/09:00am SW 18 23 - - - - - - - 18.5 1014.7 -
24/08:30am SW 18 22 - - - - - - - 18.3 1014.5 -
24/08:00am SW 16 21 - - - - - - - 18.4 1014.3 -
24/07:30am SW 16 19 - - - - - - - 18.6 1014.0 -
24/07:00am SW 16 22 - - - - - - - 18.7 1013.6 -
24/06:30am SSW 17 22 - - - - - - - 18.7 1012.7 -
24/06:00am SW 16 21 - - - - - - - 18.8 1012.7 -
24/05:30am SW 15 20 - - - - - - - 18.9 1012.1 -
24/05:00am SW 17 23 - - - - - - - 18.5 1011.7 -
24/04:30am SW 18 22 - - - - - - - 18.5 1011.3 -
24/04:00am SW 19 23 - - - - - - - 18.5 1011.0 -
24/03:30am SW 15 19 - - - - - - - 18.7 1012.4 -
24/03:00am WSW 15 18 - - - - - - - 18.4 1011.9 -
24/02:30am WSW 19 24 - - - - - - - 18.4 1011.6 -
24/02:00am WSW 15 20 - - - - - - - 18.5 1011.6 -
24/01:30am WSW 16 20 - - - - - - - 18.8 1013.1 -
24/01:00am W 9 16 - - - - - - - 18.2 1013.9 -
24/12:30am WNW 14 16 - - - - - - - 17.7 1013.2 -
24/12:00am NNW 16 19 - - - - - - - 17.2 1013.2 -
 
Date/Time
EST
Wind Sea
Height
m
Swell Vis
km
Cloud Weather Temp
°C
Press
hPa
Rain since
9am
mm
Dir  Spd
kts
Gust
kts
Height
m
Period
s
Dir
23/11:44pm W 14 20 - - - - - - - 17.5 1013.1 -
23/11:43pm W 14 20 - - - - - - - 17.5 1012.9 -
23/11:30pm WNW 19 26 - - - - - - - 17.5 1015.2 -
23/11:00pm W 15 18 - - - - - - - 17.4 1014.0 -
23/10:46pm W 16 22 - - - - - - - 17.2 1014.8 -
23/10:30pm W 11 14 - - - - - - - 16.5 1013.2 -
23/10:00pm W 17 21 - - - - - - - 17.9 1014.5 -
23/09:30pm W 14 17 - - - - - - - 18.2 1013.6 -
23/09:00pm W 13 17 - - - - - - - 17.8 1014.4 -
23/08:30pm W 11 14 - - - - - - - 17.7 1013.7 -
23/08:00pm W 14 18 - - - - - - - 17.7 1014.4 -
23/07:30pm WSW 11 15 - - - - - - - 17.5 1013.0 -
23/07:00pm WSW 11 13 - - - - - - - 17.5 1013.8 -
23/06:30pm WSW 11 14 - - - - - - - 17.6 1013.0 -
23/06:00pm SW 12 15 - - - - - - - 17.3 1012.6 -
23/05:30pm WSW 13 16 - - - - - - - 17.3 1012.9 -
23/05:00pm SW 14 16 - - - - - - - 17.3 1012.2 -
23/04:30pm SW 15 18 - - - - - - - 17.3 1012.2 -
23/04:00pm SSW 15 18 - - - - - - - 17.3 1012.7 -
23/03:30pm SW 17 26 - - - - - - - 16.9 1012.4 -
23/03:23pm SW 16 26 - - - - - - - 17.6 1012.3 -
23/03:22pm SW 16 26 - - - - - - - 17.6 1012.1 -
23/03:00pm WSW 16 20 - - - - - - - 17.3 1012.7 -
23/02:30pm SW 17 20 - - - - - - - 17.4 1012.3 -
23/02:00pm SW 16 19 - - - - - - - 17.8 1011.8 -
23/01:30pm SW 13 16 - - - - - - - 17.6 1011.9 -
23/01:00pm SSW 11 14 - - - - - - - 17.5 1012.0 -
23/12:30pm SSW 13 16 - - - - - - - 17.5 1012.3 -

Other formats

Comma delimited format used in spreadsheet applications
http://www.bom.gov.au/fwo/IDQ60701/IDQ60701.94379.axf

JavaScript Object Notation format (JSON) in row-major order
http://www.bom.gov.au/fwo/IDQ60701/IDQ60701.94379.json

Data quality

Most of these data are generated automatically and are frequently updated. Quality checks on data are not normally performed. It is possible for incorrect values to appear. Refer to information at About Latest Weather Observations and please check the disclaimer before using these data.